KANW

Details ICAO KANW
Name AINSWORTH MUNI
Region United States
Timezone America/Chicago (UTC-6.0)
Plans Departing 5
Arriving 1
Stats Elevation 2,589 ft / 789 m (AMSL)
Location 42.579521° -99.992556°
Runways 2
Magnetic Variation 5.386° E
Sunrise 2017-12-18 14:06:26 UTC / 2017-12-18 08:06:26 Local
Sunset 2017-12-18 23:09:42 UTC / 2017-12-18 17:09:42 Local
Advertisement - Login to hide

Runways

ID Width Length Bearing (true) Bearing (mag) Surface Threshold Offset Overrun Length
13 75 ft / 23 m 5,513 ft / 1,680 m 134.40° 129.01° Asphalt 0 ft / 0 m 0 ft / 0 m
17 112 ft / 34 m 6,497 ft / 1,980 m 179.30° 173.91° Concrete 0 ft / 0 m 0 ft / 0 m
31 75 ft / 23 m 5,513 ft / 1,680 m 314.40° 309.01° Asphalt 0 ft / 0 m 0 ft / 0 m
35 112 ft / 34 m 6,497 ft / 1,980 m 359.30° 353.91° Concrete 0 ft / 0 m 0 ft / 0 m

Map

Weather


0- 5 10 15 20 25 30 35+ Temperature / ° C

Clouds and Precipitation
Forecast for 2017-12-18 18:00 UTC. Updated 2 hours ago

Ground ~20,000 ft ~40,000 ft Winds

METAR

KANW 181835Z AUTO 25015KT 10SM CLR 11/M03 A2980 RMK AO2 T01061031

TAF

Not found

Frequencies

Recorded 118.32 MHz AWOS 3
Unicom 122.80 MHz CTAF/UNICOM
Warning: Do not use this data for real-world aviation or navigation. No guarantee of current accuracy is given.